Time;durP1;ratioP1;P1;durP2;ratioP2;P2;SDS_P1;SDS_P2;PMS_P1;PMS_P2;Temp;Humidity;BMP_temperature;BMP_pressure;BME280_temperature;BME280_humidity;BME280_pressure;Samples;Min_cycle;Max_cycle;Signal;HPM_P1;HPM_P2
2021/04/26 00:00:09;;;;;;;1.60;0.55;;;-2.60;99.90;;;-4.62;84.90;102051.34;4943165;28;20442;-79
2021/04/26 00:02:32;;;;;;;0.80;0.43;;;-2.70;99.90;;;-4.60;85.96;102056.50;4947423;28;20430;-80
2021/04/26 00:04:56;;;;;;;1.90;0.55;;;-2.60;99.90;;;-4.60;85.83;102059.06;4945141;28;20152;-80
2021/04/26 00:07:18;;;;;;;1.77;0.47;;;-2.60;99.90;;;-4.59;86.83;102054.00;4944284;28;20140;-80
2021/04/26 00:09:41;;;;;;;0.55;0.40;;;-2.60;99.90;;;-4.60;86.29;102046.22;4942921;28;20097;-79
2021/04/26 00:12:06;;;;;;;2.00;0.60;;;-2.70;99.90;;;-4.57;87.26;102042.09;4946534;28;20088;-80
2021/04/26 00:14:29;;;;;;;0.60;0.43;;;-2.70;99.90;;;-4.58;87.12;102049.72;4945047;28;20743;-81
2021/04/26 00:16:52;;;;;;;4.93;0.70;;;-2.60;99.90;;;-4.54;87.06;102043.88;4944934;28;20100;-80
2021/04/26 00:19:15;;;;;;;5.88;0.50;;;-2.60;99.90;;;-4.51;88.07;102044.00;4947700;28;20444;-81
2021/04/26 00:21:38;;;;;;;0.20;0.20;;;-2.60;99.90;;;-4.53;87.38;102043.94;4945223;28;20583;-80
2021/04/26 00:24:05;;;;;;;1.40;0.43;;;-2.60;99.90;;;-4.52;86.81;102044.81;4943138;28;20545;-79
2021/04/26 00:26:28;;;;;;;0.95;0.43;;;-2.50;99.90;;;-4.40;85.66;102042.69;4944781;28;20604;-81
2021/04/26 00:28:52;;;;;;;3.92;0.50;;;-2.30;99.90;;;-4.09;86.63;102041.19;4945897;28;20130;-81
2021/04/26 00:31:15;;;;;;;1.30;0.50;;;-2.20;99.90;;;-4.04;85.97;102031.06;4944354;28;20083;-80
2021/04/26 00:33:38;;;;;;;0.85;0.45;;;-2.10;99.90;;;-3.84;85.66;102031.75;4944709;28;20541;-80
2021/04/26 00:36:01;;;;;;;1.83;0.98;;;-2.00;99.90;;;-3.80;85.72;102033.56;4946968;28;20103;-80
2021/04/26 00:38:24;;;;;;;3.95;0.80;;;-1.90;99.90;;;-3.68;84.81;102027.97;4947332;28;20098;-81
2021/04/26 00:40:47;;;;;;;1.45;0.55;;;-1.80;99.90;;;-3.59;85.90;102017.97;4949637;28;20135;-81
2021/04/26 00:43:10;;;;;;;0.65;0.40;;;-1.70;99.90;;;-3.54;84.97;102019.88;4946473;28;20550;-80
2021/04/26 00:45:33;;;;;;;0.82;0.47;;;-1.60;99.90;;;-3.48;86.12;102018.31;4945039;28;20118;-81
2021/04/26 00:47:56;;;;;;;0.60;0.40;;;-1.70;99.90;;;-3.58;86.64;102015.44;4943097;28;20554;-80
2021/04/26 00:50:24;;;;;;;6.93;0.50;;;-1.80;99.90;;;-3.67;86.43;102011.69;4946762;28;20140;-79
2021/04/26 00:52:50;;;;;;;3.55;0.57;;;-1.80;99.90;;;-3.69;87.70;102015.91;4949028;27;20135;-78
2021/04/26 00:55:15;;;;;;;1.20;0.43;;;-1.80;99.90;;;-3.71;87.37;102018.44;4947424;27;20087;-79
2021/04/26 00:57:38;;;;;;;1.75;0.60;;;;;;;-3.75;86.58;102014.03;4949282;27;20083;-78
2021/04/26 01:00:01;;;;;;;2.03;0.50;;;-1.90;99.90;;;-3.82;86.45;102012.06;4949205;27;20498;-79
2021/04/26 01:02:25;;;;;;;0.63;0.38;;;-2.00;99.90;;;-3.92;86.31;102010.88;4948640;27;20087;-79
2021/04/26 01:04:48;;;;;;;2.58;0.45;;;-2.10;99.90;;;-4.00;85.69;102015.75;4950396;28;20082;-79
2021/04/26 01:07:11;;;;;;;0.82;0.60;;;-2.10;99.90;;;-4.00;86.23;102015.75;4946615;27;20082;-78
2021/04/26 01:09:34;;;;;;;0.93;0.60;;;-2.10;99.90;;;-3.98;87.43;102008.97;4949571;27;20098;-78
2021/04/26 01:12:13;;;;;;;0.75;0.30;;;-2.10;99.90;;;-4.03;87.09;102012.25;4947571;27;20135;-79
2021/04/26 01:14:43;;;;;;;0.60;0.40;;;-2.10;99.90;;;-4.05;86.53;102009.59;4947963;27;20531;-79
2021/04/26 01:17:13;;;;;;;1.25;0.30;;;-2.10;99.90;;;-4.02;86.55;102007.13;4947984;27;20516;-79
2021/04/26 01:20:08;;;;;;;1.75;0.55;;;-2.10;99.90;;;-3.92;87.68;102011.75;4948232;27;20086;-79
2021/04/26 01:23:40;;;;;;;1.88;0.73;;;-2.00;99.90;;;-4.06;87.13;102005.28;4945696;27;20091;-77
2021/04/26 01:26:04;;;;;;;3.78;0.50;;;-2.20;99.90;;;-4.13;88.88;102006.75;4878404;28;21645;-79
2021/04/26 01:28:44;;;;;;;1.58;0.52;;;-2.30;99.90;;;-4.24;87.44;102005.53;4873187;28;20464;-78
2021/04/26 01:31:14;;;;;;;2.47;0.50;;;-2.30;99.90;;;-4.28;87.58;102007.94;4918611;27;20110;-79
2021/04/26 01:33:44;;;;;;;2.95;0.65;;;-2.40;99.90;;;-4.36;86.50;102005.13;4947260;27;20083;-79
2021/04/26 01:36:12;;;;;;;4.05;0.47;;;-2.10;99.90;;;-4.40;87.23;102005.84;4947902;27;20078;-78
2021/04/26 01:38:40;;;;;;;1.35;0.65;;;-2.50;99.90;;;-4.43;89.24;102009.13;4946588;27;20105;-80
2021/04/26 01:41:03;;;;;;;5.55;0.60;;;-1.20;99.90;;;-4.48;88.44;102009.81;4945924;27;20522;-79
2021/04/26 01:43:29;;;;;;;0.93;0.50;;;-2.60;99.90;;;-4.55;88.87;102003.59;4950034;27;20530;-80
2021/04/26 01:45:55;;;;;;;2.13;0.60;;;-2.60;99.90;;;-4.59;88.72;102009.44;4950099;27;20087;-77
2021/04/26 01:48:18;;;;;;;1.48;0.50;;;-2.70;99.90;;;-4.66;88.64;102005.78;4946266;27;20086;-78
2021/04/26 01:50:42;;;;;;;1.98;0.40;;;-2.70;99.90;;;-4.67;89.28;102005.72;4949799;27;20083;-80
2021/04/26 01:53:07;;;;;;;0.45;0.20;;;;;;;-4.63;89.16;101999.84;4949015;27;20085;-79
2021/04/26 01:55:30;;;;;;;1.33;0.40;;;-2.70;99.90;;;-4.65;89.60;101994.66;4948873;27;20211;-80
2021/04/26 01:57:54;;;;;;;3.70;0.75;;;-2.80;99.90;;;-4.65;89.09;101993.78;4948868;27;20093;-81
2021/04/26 02:00:22;;;;;;;1.83;0.30;;;;;;;-4.59;90.00;101994.00;4946009;27;20100;-81
2021/04/26 02:02:46;;;;;;;1.77;1.23;;;-2.60;99.90;;;-4.58;90.51;101999.22;4945629;28;20083;-77
2021/04/26 02:05:10;;;;;;;0.50;0.20;;;-2.60;99.90;;;-4.56;90.62;101989.88;4948418;28;20091;-81
2021/04/26 02:07:36;;;;;;;3.00;0.80;;;-2.70;99.90;;;-4.60;89.68;101992.25;4945410;27;20250;-81
2021/04/26 02:10:00;;;;;;;2.25;0.70;;;-2.70;99.90;;;-4.64;89.81;101987.84;4947490;27;20130;-82
2021/04/26 02:12:24;;;;;;;4.95;0.85;;;;;;;-4.65;89.31;101986.94;4947366;28;20492;-81
2021/04/26 02:14:47;;;;;;;5.07;0.68;;;-2.70;99.90;;;-4.63;89.62;101977.59;4949070;27;20101;-82
2021/04/26 02:17:10;;;;;;;3.97;0.55;;;-2.70;99.90;;;-4.66;88.92;101976.63;4945321;27;20438;-79
2021/04/26 02:19:33;;;;;;;1.15;0.60;;;-2.70;99.90;;;-4.65;89.08;101986.06;4945437;27;20471;-81
2021/04/26 02:21:56;;;;;;;12.10;0.70;;;-2.70;99.90;;;-4.65;90.37;101978.38;4947094;27;20541;-81
2021/04/26 02:24:20;;;;;;;3.70;0.77;;;-2.70;99.90;;;-4.61;90.38;101972.53;4947301;28;20143;-79
2021/04/26 02:26:43;;;;;;;4.47;0.60;;;-2.60;99.90;;;-4.57;91.75;101969.25;4946897;27;20151;-81
2021/04/26 02:29:06;;;;;;;3.88;0.77;;;-2.70;99.90;;;-4.62;91.57;101971.66;4947791;27;20091;-79
2021/04/26 02:31:34;;;;;;;8.30;1.52;;;-2.80;99.90;;;-4.67;90.67;101970.59;4947775;27;20088;-81
2021/04/26 02:34:07;;;;;;;1.77;0.60;;;-2.80;99.90;;;-4.70;90.47;101967.94;4946765;27;20083;-81
2021/04/26 02:36:35;;;;;;;2.90;0.70;;;-2.80;99.90;;;-4.75;89.87;101961.75;4946564;27;20456;-79
2021/04/26 02:39:05;;;;;;;1.63;0.63;;;-2.90;99.90;;;-4.79;89.49;101960.75;4946235;28;20496;-82
2021/04/26 02:41:33;;;;;;;3.17;1.00;;;-2.80;99.90;;;-4.78;89.56;101961.63;4947615;28;20089;-80
2021/04/26 02:44:00;;;;;;;2.42;0.70;;;-2.90;99.90;;;-4.87;89.00;101972.44;4945189;27;20518;-82
2021/04/26 02:46:26;;;;;;;3.08;0.65;;;-3.00;99.90;;;-4.95;89.46;101966.16;4946296;27;20087;-81
2021/04/26 02:48:51;;;;;;;1.73;0.50;;;-3.10;99.90;;;-5.04;89.77;101961.56;4946437;27;20145;-80
2021/04/26 02:51:14;;;;;;;4.68;0.80;;;-3.10;99.90;;;-5.07;89.66;101952.88;4946838;28;20096;-82
2021/04/26 02:53:38;;;;;;;0.35;0.32;;;-3.10;99.90;;;-5.07;89.99;101966.59;4944571;28;20089;-81
2021/04/26 02:56:07;;;;;;;4.68;0.55;;;-3.00;99.90;;;-4.99;90.98;101962.63;4946951;27;20098;-81
2021/04/26 02:58:31;;;;;;;9.00;0.50;;;-3.00;99.90;;;-4.97;92.29;101957.50;4945992;27;20094;-81
2021/04/26 03:00:54;;;;;;;2.42;0.70;;;-3.00;99.90;;;-4.98;91.83;101958.34;4946532;27;20101;-81
2021/04/26 03:03:19;;;;;;;0.80;0.45;;;-3.00;99.90;;;-5.02;91.76;101959.06;4945480;27;20091;-81
2021/04/26 03:05:43;;;;;;;6.35;0.50;;;-3.10;99.90;;;-4.97;93.70;101958.41;4947252;27;20089;-81
2021/04/26 03:08:07;;;;;;;5.25;0.82;;;;;;;-5.03;92.47;101955.63;4943030;27;20094;-79
2021/04/26 03:10:30;;;;;;;1.17;0.70;;;;;;;-5.08;92.37;101958.81;4946419;27;20091;-81
2021/04/26 03:12:54;;;;;;;5.50;0.80;;;-3.20;99.90;;;-5.14;92.19;101954.31;4945980;28;20131;-81
2021/04/26 03:15:22;;;;;;;2.25;0.80;;;-3.20;99.90;;;-5.22;92.16;101955.75;4946599;27;20095;-82
2021/04/26 03:17:46;;;;;;;2.10;0.70;;;-3.30;99.90;;;-5.30;92.16;101959.72;4945690;27;20091;-80
2021/04/26 03:20:15;;;;;;;3.28;0.60;;;-3.30;99.90;;;-5.35;92.46;101951.84;4945493;27;20097;-81
2021/04/26 03:22:39;;;;;;;3.25;0.38;;;-3.40;99.90;;;-5.37;92.39;101954.34;4942120;28;20075;-80
2021/04/26 03:25:03;;;;;;;1.10;0.30;;;-3.50;99.90;;;-5.39;92.84;101955.97;4945469;27;20091;-80
2021/04/26 03:27:27;;;;;;;1.40;0.50;;;-3.40;99.90;;;-5.31;93.59;101950.25;4945131;27;20099;-81
2021/04/26 03:29:53;;;;;;;2.03;0.70;;;-3.40;99.90;;;-5.31;93.31;101951.16;4944290;28;20099;-81
2021/04/26 03:32:17;;;;;;;0.88;0.45;;;-3.30;99.90;;;-5.31;93.18;101951.16;4945925;27;20087;-81
2021/04/26 03:34:41;;;;;;;2.60;0.38;;;-1.80;99.90;;;-5.38;92.89;101950.03;4944555;27;20094;-80
2021/04/26 03:37:04;;;;;;;2.10;0.60;;;-3.40;99.90;;;-5.38;92.83;101956.84;4945734;28;20093;-81
2021/04/26 03:39:27;;;;;;;1.05;0.47;;;-3.40;99.90;;;-5.35;92.56;101951.84;4943953;28;20568;-80
2021/04/26 03:41:50;;;;;;;1.05;0.57;;;-3.40;99.90;;;-5.39;92.80;101953.41;4945823;28;20099;-80
2021/04/26 03:44:15;;;;;;;1.60;0.57;;;-3.40;99.90;;;-5.35;92.66;101954.41;4945937;27;20094;-79
2021/04/26 03:46:49;;;;;;;0.93;0.47;;;-3.40;99.90;;;-5.27;92.62;101949.53;4944485;28;20099;-79
2021/04/26 03:49:13;;;;;;;3.65;0.52;;;-3.30;99.90;;;-5.31;92.47;101945.09;4944645;27;20090;-81
2021/04/26 03:51:35;;;;;;;1.95;0.52;;;-3.30;99.90;;;-5.30;92.11;101947.75;4943160;28;20126;-78
2021/04/26 03:53:58;;;;;;;3.40;0.70;;;-3.30;99.90;;;-5.25;92.10;101951.38;4945036;28;20102;-79
2021/04/26 03:56:21;;;;;;;1.77;0.40;;;-3.20;99.90;;;-5.22;90.96;101954.06;4945533;28;20103;-79
2021/04/26 03:58:44;;;;;;;2.33;1.02;;;-3.20;99.90;;;-5.14;91.14;101954.31;4944446;28;20109;-80
2021/04/26 04:01:06;;;;;;;5.90;0.88;;;-3.10;99.90;;;-5.01;91.97;101963.34;4946819;28;20654;-79
2021/04/26 04:03:29;;;;;;;6.28;1.05;;;-3.00;99.90;;;-4.96;92.24;101959.28;4944805;28;20433;-81
2021/04/26 04:05:53;;;;;;;3.38;0.80;;;-3.00;99.90;;;-4.95;91.54;101961.91;4944478;28;20476;-83
2021/04/26 04:08:16;;;;;;;6.80;0.88;;;-2.90;99.90;;;-4.88;93.03;101957.88;4946043;28;20109;-82
2021/04/26 04:10:39;;;;;;;1.70;1.05;;;-2.80;99.90;;;-4.77;92.52;101956.56;4946165;28;20084;-82
2021/04/26 04:13:03;;;;;;;2.03;0.80;;;-2.80;99.90;;;-4.69;92.95;101953.38;4944703;28;20095;-82
2021/04/26 04:15:26;;;;;;;3.33;0.93;;;-2.70;99.90;;;-4.59;92.23;101948.63;4946305;28;20138;-81
2021/04/26 04:17:49;;;;;;;6.53;0.98;;;-2.50;99.90;;;-4.46;92.09;101956.75;4945485;28;20490;-81
2021/04/26 04:20:13;;;;;;;2.75;0.60;;;-2.40;99.90;;;-4.33;91.62;101953.78;4946100;28;20075;-83
2021/04/26 04:22:38;;;;;;;0.70;0.70;;;-2.30;99.90;;;-4.14;90.91;101955.28;4945266;28;20102;-82
2021/04/26 04:25:00;;;;;;;1.23;0.70;;;-2.10;99.90;;;-3.97;91.34;101955.84;4945175;27;20544;-80
2021/04/26 04:27:23;;;;;;;2.15;0.98;;;-1.90;99.90;;;-3.83;90.49;101959.72;4950831;27;20082;-82
2021/04/26 04:29:46;;;;;;;4.50;1.02;;;-1.70;99.90;;;-3.61;90.16;101950.97;4947919;27;20093;-79
2021/04/26 04:32:09;;;;;;;0.73;0.60;;;-1.40;99.90;;;-3.16;90.92;101950.59;4950319;27;20097;-82
2021/04/26 04:34:32;;;;;;;4.40;0.70;;;-0.90;99.90;;;-2.71;88.27;101941.56;4947651;27;20173;-81
2021/04/26 04:36:56;;;;;;;2.58;0.85;;;-0.50;99.90;;;-2.26;87.21;101943.63;4950607;27;20078;-82
2021/04/26 04:39:20;;;;;;;1.80;0.77;;;0.00;99.90;;;-1.61;85.56;101935.72;4946865;27;20094;-81
2021/04/26 04:41:42;;;;;;;4.20;0.88;;;1.00;99.90;;;-0.54;82.88;101944.81;4949674;27;20089;-79
2021/04/26 04:44:06;;;;;;;6.95;0.90;;;1.90;99.90;;;0.23;78.17;101942.66;4948125;27;20090;-81
2021/04/26 04:46:29;;;;;;;10.00;0.88;;;2.60;99.90;;;1.07;75.60;101943.81;4949220;27;20520;-82
2021/04/26 04:48:53;;;;;;;5.00;1.10;;;3.80;99.90;;;2.36;71.98;101936.38;4948948;28;20090;-83
2021/04/26 04:51:16;;;;;;;2.53;0.73;;;4.90;99.90;;;3.13;66.48;101939.34;4949384;27;20511;-82
2021/04/26 04:53:39;;;;;;;2.30;0.88;;;5.50;99.90;;;3.76;64.23;101932.56;4948031;27;20581;-83
2021/04/26 04:56:04;;;;;;;1.55;0.63;;;5.90;99.90;;;4.30;61.58;101930.81;4948844;28;20136;-80
2021/04/26 04:58:27;;;;;;;3.65;1.63;;;6.40;99.90;;;5.03;59.16;101931.47;4949044;27;20104;-81
2021/04/26 05:00:50;;;;;;;4.63;1.70;;;6.90;99.90;;;5.39;56.03;101934.75;4950526;27;20092;-84
2021/04/26 05:03:13;;;;;;;4.82;1.88;;;7.30;99.90;;;5.65;54.83;101929.38;4949664;27;20077;-84
2021/04/26 05:05:35;;;;;;;8.32;1.80;;;7.40;99.90;;;5.86;53.98;101924.88;4947363;27;20561;-81
2021/04/26 05:07:58;;;;;;;3.67;1.67;;;7.60;99.90;;;6.29;53.90;101930.63;4947809;27;20088;-81
2021/04/26 05:10:21;;;;;;;2.95;1.52;;;8.00;99.90;;;7.26;51.13;101928.66;4947852;27;23100;-83
2021/04/26 05:12:45;;;;;;;4.03;1.67;;;9.00;99.90;;;8.50;48.20;101926.66;4950206;27;20078;-83
2021/04/26 05:15:09;;;;;;;6.18;1.30;;;10.20;99.90;;;9.45;45.78;101921.19;4947980;27;20077;-84
2021/04/26 05:17:33;;;;;;;3.75;0.90;;;11.00;99.90;;;10.29;43.51;101920.94;4948157;27;20402;-83
2021/04/26 05:19:57;;;;;;;2.10;0.70;;;11.60;99.90;;;10.92;42.20;101915.69;4947249;27;20040;-82
2021/04/26 05:22:20;;;;;;;5.22;1.00;;;12.30;98.00;;;11.26;40.33;101916.41;4949829;27;20047;-83
2021/04/26 05:24:43;;;;;;;3.35;0.75;;;12.50;97.40;;;11.84;40.58;101920.75;4949085;27;20055;-84
2021/04/26 05:27:07;;;;;;;2.35;0.80;;;13.30;95.80;;;12.26;39.96;101925.53;4948284;28;20051;-83
2021/04/26 05:29:31;;;;;;;3.15;0.88;;;13.60;94.40;;;12.28;39.01;101919.28;4948449;28;20047;-83
2021/04/26 05:31:53;;;;;;;1.83;0.80;;;13.70;94.10;;;12.76;38.69;101924.66;4946956;27;20044;-83
2021/04/26 05:34:16;;;;;;;4.45;0.73;;;14.00;93.70;;;12.81;40.25;101918.28;4948805;27;20100;-81
2021/04/26 05:36:39;;;;;;;1.85;0.60;;;14.70;93.20;;;13.62;38.61;101911.66;4948380;27;20043;-83
2021/04/26 05:39:02;;;;;;;1.95;0.60;;;15.20;91.70;;;14.24;37.56;101909.09;4947363;27;20490;-83
2021/04/26 05:41:25;;;;;;;3.47;0.90;;;15.70;90.60;;;14.67;36.30;101902.81;4947443;28;20054;-81
2021/04/26 05:43:48;;;;;;;2.83;0.70;;;14.60;90.80;;;12.08;41.28;101919.97;4945574;27;20052;-82
2021/04/26 05:46:11;;;;;;;3.28;0.85;;;13.20;93.70;;;10.78;44.82;101914.31;4949246;27;20409;-83
2021/04/26 05:48:34;;;;;;;6.82;0.70;;;11.50;96.00;;;8.59;50.08;101936.13;4947289;27;20043;-82
2021/04/26 05:50:57;;;;;;;5.93;0.93;;;10.80;98.90;;;9.30;50.46;101930.28;4947423;27;20056;-82
2021/04/26 05:53:20;;;;;;;4.57;0.75;;;10.60;99.00;;;8.87;50.36;101923.31;4949227;27;20044;-83
2021/04/26 05:55:43;;;;;;;5.35;1.15;;;10.60;99.90;;;9.21;51.39;101922.63;4946767;27;20047;-81
2021/04/26 05:58:06;;;;;;;4.20;0.90;;;10.80;99.90;;;9.54;50.76;101917.50;4947636;27;20044;-83
2021/04/26 06:00:29;;;;;;;3.00;0.80;;;11.10;99.90;;;9.95;50.60;101913.84;4946434;27;20054;-81
2021/04/26 06:02:53;;;;;;;4.25;1.17;;;11.40;99.90;;;10.02;50.50;101917.19;4948124;27;20050;-83
2021/04/26 06:05:15;;;;;;;4.07;0.85;;;11.80;99.90;;;10.68;49.29;101918.13;4946752;27;20043;-82
2021/04/26 06:07:39;;;;;;;7.00;0.95;;;12.60;99.90;;;11.22;47.36;101916.56;4947521;27;20081;-83
2021/04/26 06:10:02;;;;;;;2.85;1.05;;;12.10;98.90;;;9.72;50.08;101924.06;4948465;27;20044;-82
2021/04/26 06:12:25;;;;;;;2.67;0.75;;;11.50;99.90;;;9.89;52.59;101929.78;4946128;27;20052;-83
2021/04/26 06:14:48;;;;;;;7.00;1.05;;;11.70;99.90;;;10.43;50.17;101926.69;4948332;28;20100;-81
2021/04/26 06:17:11;;;;;;;2.67;0.80;;;12.00;99.90;;;11.13;49.60;101922.97;4946006;27;20060;-83
2021/04/26 06:19:35;;;;;;;5.30;0.70;;;12.40;99.90;;;11.45;47.86;101922.00;4948314;27;20031;-83
2021/04/26 06:21:58;;;;;;;7.85;1.10;;;13.10;99.90;;;11.38;47.12;101914.31;4947930;27;20051;-83
2021/04/26 06:24:21;;;;;;;2.08;0.65;;;12.40;99.10;;;9.99;50.15;101923.41;4948499;27;20105;-83
2021/04/26 06:26:44;;;;;;;4.28;0.50;;;11.10;99.90;;;9.05;53.93;101927.34;4947957;27;20044;-83
2021/04/26 06:29:07;;;;;;;14.23;1.30;;;10.70;99.90;;;9.08;53.92;101922.00;4948172;28;20052;-83
2021/04/26 06:31:30;;;;;;;4.80;1.00;;;10.90;99.90;;;9.92;53.01;101920.97;4947516;27;20505;-81
2021/04/26 06:33:52;;;;;;;9.50;1.08;;;10.90;99.90;;;9.61;51.83;101909.44;4947515;27;21850;-81
2021/04/26 06:36:16;;;;;;;4.80;0.75;;;;;;;10.24;52.14;101914.91;4947204;27;20055;-83
2021/04/26 06:38:39;;;;;;;6.05;0.60;;;11.90;99.90;;;12.04;49.11;101909.56;4947229;27;20039;-83
2021/04/26 06:41:03;;;;;;;5.88;0.77;;;12.90;99.90;;;12.83;44.15;101902.34;4946818;27;20521;-79
2021/04/26 06:43:26;;;;;;;4.70;0.55;;;13.60;99.00;;;12.56;40.99;101915.66;4948647;28;20051;-84
2021/04/26 06:45:48;;;;;;;9.20;0.60;;;13.70;96.80;;;12.05;43.28;101913.91;4945608;27;20379;-83
2021/04/26 06:48:15;;;;;;;4.97;0.65;;;13.20;97.70;;;13.03;42.47;101909.56;4945948;27;20074;-84
2021/04/26 06:50:38;;;;;;;4.38;0.50;;;13.60;97.30;;;12.60;42.94;101916.44;4947335;27;20444;-83
2021/04/26 06:53:02;;;;;;;6.15;0.80;;;12.90;97.50;;;11.19;46.21;101909.59;4948172;27;20212;-85
2021/04/26 06:55:26;;;;;;;6.88;0.70;;;12.70;98.50;;;12.33;44.63;101911.19;4946925;28;20044;-85
2021/04/26 06:57:49;;;;;;;1.83;0.55;;;13.30;97.30;;;13.05;41.61;101905.06;4943553;27;20371;-84
2021/04/26 07:00:14;;;;;;;4.22;1.10;;;13.80;97.40;;;14.11;42.29;101896.38;4947268;28;20040;-84
2021/04/26 07:02:37;;;;;;;2.97;0.88;;;13.80;95.80;;;12.49;44.34;101901.81;4946195;27;20078;-86
2021/04/26 07:05:00;;;;;;;7.18;0.90;;;13.60;97.00;;;13.63;41.27;101897.50;4948092;28;20039;-80
2021/04/26 07:07:24;;;;;;;5.00;1.02;;;13.80;94.50;;;12.95;42.06;101901.03;4945990;28;20391;-85
2021/04/26 07:09:48;;;;;;;1.85;0.47;;;15.30;95.40;;;13.73;39.65;101896.19;4947804;27;20456;-82
2021/04/26 07:12:11;;;;;;;4.25;0.47;;;13.60;96.00;;;13.71;40.77;101898.06;4946622;27;20494;-83
2021/04/26 07:14:33;;;;;;;5.35;0.70;;;14.30;95.60;;;14.64;38.75;101876.41;4945274;28;20108;-85
2021/04/26 07:16:56;;;;;;;2.55;0.88;;;15.00;93.40;;;15.04;36.13;101894.94;4946611;28;20051;-83
2021/04/26 07:19:19;;;;;;;4.10;0.60;;;15.30;94.40;;;16.78;34.75;101874.66;4944111;27;20055;-85
2021/04/26 07:21:42;;;;;;;4.07;0.95;;;15.70;93.30;;;16.26;35.11;101876.56;4947632;28;20101;-80
2021/04/26 07:24:06;;;;;;;3.83;0.80;;;14.50;93.80;;;13.29;42.37;101885.63;4947333;27;20058;-84
2021/04/26 07:26:29;;;;;;;2.67;0.60;;;13.40;94.90;;;12.72;42.52;101877.22;4944362;27;20051;-82
2021/04/26 07:28:53;;;;;;;6.15;0.50;;;;;;;14.06;34.04;101869.25;4945755;28;20047;-85
2021/04/26 07:31:15;;;;;;;7.43;1.08;;;13.70;93.90;;;13.09;39.21;101873.16;4947122;27;20081;-83
2021/04/26 07:33:38;;;;;;;3.53;0.50;;;14.10;91.60;;;13.49;36.00;101873.38;4946404;28;20047;-84
2021/04/26 07:36:01;;;;;;;2.22;0.52;;;14.20;89.10;;;13.73;35.15;101882.94;4946916;27;20051;-84
2021/04/26 07:38:24;;;;;;;3.63;0.50;;;13.30;89.50;;;12.85;36.57;101880.25;4945834;28;20065;-85
2021/04/26 07:40:47;;;;;;;1.35;0.40;;;12.80;92.80;;;12.23;39.54;101872.84;4945705;28;20049;-84
2021/04/26 07:43:11;;;;;;;4.07;0.50;;;;;;;10.59;41.52;101881.50;4945492;28;20048;-83
2021/04/26 07:45:34;;;;;;;2.13;0.60;;;10.80;93.70;;;8.15;46.35;101895.78;4947622;28;20043;-83
2021/04/26 07:47:57;;;;;;;2.08;0.43;;;9.60;97.30;;;7.57;50.49;101893.22;4944917;28;20036;-83
2021/04/26 07:50:20;;;;;;;1.38;0.60;;;8.80;98.90;;;7.63;49.41;101902.78;4946562;27;20415;-83
2021/04/26 07:52:43;;;;;;;2.35;0.68;;;8.60;98.20;;;6.82;49.72;101896.88;4947249;28;20079;-82
2021/04/26 07:55:07;;;;;;;5.25;0.50;;;7.90;98.90;;;6.16;53.17;101900.25;4946373;28;20129;-83
2021/04/26 07:57:32;;;;;;;2.15;0.60;;;7.30;99.90;;;5.68;53.88;101912.78;4943752;28;20096;-82
2021/04/26 07:59:56;;;;;;;1.33;0.47;;;7.10;99.90;;;5.43;55.00;101933.00;4945925;28;20087;-81
2021/04/26 08:02:18;;;;;;;1.55;0.45;;;6.30;99.90;;;3.56;61.75;101923.84;4945143;28;20547;-77
2021/04/26 08:04:41;;;;;;;1.17;0.22;;;4.90;99.90;;;2.57;66.48;101941.72;4945359;28;20090;-79
2021/04/26 08:07:04;;;;;;;0.65;0.22;;;4.20;99.90;;;2.10;68.71;101967.38;4944752;28;20097;-82
2021/04/26 08:09:27;;;;;;;2.05;0.60;;;3.70;99.90;;;1.66;75.42;101971.28;4944394;28;20086;-83
2021/04/26 08:11:50;;;;;;;3.20;0.50;;;3.30;99.90;;;1.66;74.94;101954.81;4945584;28;20098;-83
2021/04/26 08:14:12;;;;;;;2.17;0.55;;;3.20;99.90;;;1.74;72.35;101942.78;4947019;28;20181;-83
2021/04/26 08:16:37;;;;;;;7.88;1.77;;;3.30;99.90;;;1.78;73.67;101940.22;4948255;28;20605;-86
2021/04/26 08:18:59;;;;;;;10.88;2.33;;;3.30;99.90;;;1.85;72.34;101942.03;4944309;28;20090;-85
2021/04/26 08:21:24;;;;;;;3.75;1.00;;;3.50;99.90;;;2.09;71.94;101937.03;4946327;28;20093;-85
2021/04/26 08:23:47;;;;;;;2.90;0.60;;;3.80;99.90;;;2.40;71.75;101926.00;4946156;28;20089;-84
2021/04/26 08:26:10;;;;;;;3.75;0.70;;;4.10;99.90;;;2.72;72.17;101930.53;4943847;28;20100;-83
2021/04/26 08:28:34;;;;;;;15.25;4.25;;;4.30;99.90;;;2.94;71.22;101921.09;4946978;28;20520;-84
2021/04/26 08:30:57;;;;;;;15.63;5.18;;;4.50;99.90;;;3.24;66.37;101916.81;4944824;28;20097;-85
2021/04/26 08:33:21;;;;;;;4.72;2.30;;;4.90;99.90;;;3.74;63.09;101910.84;4945490;28;20622;-83
2021/04/26 08:35:44;;;;;;;1.85;1.10;;;5.30;99.90;;;4.46;62.84;101916.00;4945507;28;20086;-82
2021/04/26 08:38:07;;;;;;;2.10;0.73;;;5.90;99.90;;;5.66;62.36;101901.47;4943410;28;20168;-82
2021/04/26 08:40:30;;;;;;;0.52;0.30;;;;;;;6.35;55.12;101908.78;4947775;28;20550;-82
2021/04/26 08:42:53;;;;;;;1.40;0.60;;;6.90;99.90;;;6.55;56.81;101909.44;4946054;28;20096;-83
2021/04/26 08:45:19;;;;;;;2.72;1.05;;;6.80;99.90;;;5.88;58.20;101912.66;4945950;28;20530;-84
2021/04/26 08:47:43;;;;;;;1.42;0.40;;;6.50;99.90;;;5.33;53.90;101914.78;4943961;28;20075;-83
2021/04/26 08:50:09;;;;;;;0.68;0.30;;;6.10;99.90;;;5.30;57.39;101920.00;4943630;28;20083;-84
2021/04/26 08:52:33;;;;;;;2.05;0.40;;;6.50;99.90;;;5.62;57.53;101915.47;4943889;28;20091;-84
2021/04/26 08:54:57;;;;;;;1.02;0.30;;;6.40;99.90;;;5.88;60.01;101923.97;4945520;28;20095;-82
2021/04/26 08:57:21;;;;;;;1.55;0.50;;;7.00;99.90;;;6.09;58.95;101922.97;4943788;28;20088;-85
2021/04/26 08:59:45;;;;;;;5.40;0.40;;;7.10;99.90;;;6.21;56.01;101914.13;4943778;28;20087;-83
2021/04/26 09:02:24;;;;;;;0.73;0.47;;;7.20;99.90;;;6.46;56.72;101913.91;4883702;28;20094;-82
2021/04/26 09:05:18;;;;;;;0.90;0.30;;;;;;;6.30;55.42;101913.19;4878446;28;20109;-85
2021/04/26 09:08:35;;;;;;;1.20;0.50;;;7.00;99.90;;;6.42;57.42;101913.06;4859199;28;20248;-83
2021/04/26 09:11:38;;;;;;;2.58;0.20;;;7.60;99.90;;;6.95;53.45;101900.22;4879310;28;20081;-85
2021/04/26 09:14:47;;;;;;;1.60;0.35;;;7.70;99.90;;;6.05;54.10;101907.31;4877599;28;20086;-84
2021/04/26 09:18:03;;;;;;;0.95;0.30;;;7.30;99.90;;;5.88;57.68;101910.06;4884468;28;20473;-83
2021/04/26 09:21:06;;;;;;;1.58;0.80;;;6.90;99.90;;;5.60;55.37;101904.16;4870038;28;20093;-85
2021/04/26 09:24:37;;;;;;;2.83;0.30;;;6.90;99.90;;;5.65;52.91;101900.63;4884574;27;20132;-80
2021/04/26 09:27:45;;;;;;;0.40;0.20;;;7.00;99.90;;;5.91;55.55;101903.03;4872163;27;20199;-83
2021/04/26 09:30:10;;;;;;;1.83;0.40;;;7.10;99.90;;;6.06;53.46;101898.59;4919871;27;20083;-83
2021/04/26 09:33:06;;;;;;;;;;;7.20;99.90;;;6.20;55.70;101904.56;4883498;27;20107;-83
2021/04/26 10:35:50;;;;;;;0.17;0.13;;;;;;;3.21;72.01;101911.63;4878399;27;20108;-82
2021/04/26 10:39:23;;;;;;;0.75;0.40;;;4.30;99.90;;;2.33;78.79;101923.34;4859069;28;20081;-86
2021/04/26 10:42:15;;;;;;;1.95;0.70;;;3.90;99.90;;;2.38;80.04;101926.84;4895191;28;20094;-87
2021/04/26 10:45:39;;;;;;;2.75;0.60;;;3.80;99.90;;;2.20;81.34;101919.78;4880217;28;20120;-88
2021/04/26 10:48:40;;;;;;;5.18;1.10;;;3.60;99.90;;;2.08;81.22;101910.19;4881909;28;20151;-91
2021/04/26 10:51:51;;;;;;;1.92;0.68;;;3.20;99.90;;;1.62;82.42;101912.38;4882230;27;20097;-84
2021/04/26 10:54:59;;;;;;;4.25;0.73;;;3.10;99.90;;;1.57;83.23;101896.75;4882983;27;20131;-81
2021/04/26 10:57:32;;;;;;;2.85;0.70;;;3.20;99.90;;;1.74;83.42;101890.84;4932438;27;20098;-81
2021/04/26 10:59:55;;;;;;;1.98;0.82;;;3.40;99.90;;;2.03;82.91;101896.25;4945194;28;20078;-81
2021/04/26 11:02:32;;;;;;;2.22;1.00;;;;;;;2.23;83.03;101889.50;4936105;27;20098;-84
2021/04/26 11:05:17;;;;;;;7.28;1.30;;;3.80;99.90;;;2.53;81.77;101890.53;4937891;27;20489;-84
2021/04/26 11:07:41;;;;;;;4.90;0.98;;;;;;;2.82;81.26;101889.81;4943338;27;20077;-82
2021/04/26 11:10:43;;;;;;;3.88;0.75;;;4.40;99.90;;;3.17;78.80;101884.69;4944533;28;20127;-82
2021/04/26 11:13:44;;;;;;;2.95;0.85;;;4.80;99.90;;;3.71;78.44;101879.56;4938861;28;20089;-82
2021/04/26 11:16:11;;;;;;;3.30;0.80;;;5.40;99.90;;;4.22;77.20;101883.00;4937352;27;20101;-82
2021/04/26 11:18:36;;;;;;;3.13;0.52;;;5.90;99.90;;;5.00;76.22;101873.19;4945428;28;20146;-84
2021/04/26 11:20:59;;;;;;;1.50;0.47;;;6.60;99.90;;;5.61;69.39;101867.56;4945950;27;20079;-82